createdAt,value
2022-11-25T00:01:21.473Z,98471.38
2022-11-25T00:03:49.011Z,98471.22
2022-11-25T00:06:21.831Z,98482.88
2022-11-25T00:08:50.568Z,98479.81
2022-11-25T00:11:18.175Z,98478.19
2022-11-25T00:13:45.864Z,98474.47
2022-11-25T00:16:15.217Z,98479.38
2022-11-25T00:18:45.905Z,98477.38
2022-11-25T00:21:15.610Z,98469.56
2022-11-25T00:23:42.793Z,98470.34
2022-11-25T00:26:16.622Z,98472.97
2022-11-25T00:28:45.148Z,98484.72
2022-11-25T00:31:25.930Z,98484.75
2022-11-25T00:33:52.433Z,98475.75
2022-11-25T00:36:23.632Z,98491.72
2022-11-25T00:39:09.324Z,98484.72
2022-11-25T00:41:54.257Z,98483.13
2022-11-25T00:44:37.010Z,98487.47
2022-11-25T00:47:04.142Z,98473.31
2022-11-25T00:49:31.094Z,98475.75
2022-11-25T00:51:57.554Z,98477.13
2022-11-25T00:54:24.055Z,98458.88
2022-11-25T00:56:51.147Z,98458.88
2022-11-25T00:59:18.522Z,98459.28
2022-11-25T01:01:45.074Z,98455.63
2022-11-25T01:04:11.529Z,98459.28
2022-11-25T01:06:38.191Z,98462.41
2022-11-25T01:09:08.921Z,98454.03
2022-11-25T01:11:35.632Z,98458.75
2022-11-25T01:14:02.432Z,98458.19
2022-11-25T01:16:29.962Z,98454.09
2022-11-25T01:18:58.407Z,98451.31
2022-11-25T01:21:27.134Z,98449.06
2022-11-25T01:23:53.928Z,98445.94
2022-11-25T01:26:23.428Z,98448.88
2022-11-25T01:28:53.860Z,98445.97
2022-11-25T01:31:21.959Z,98447.00
2022-11-25T01:33:53.584Z,98443.34
2022-11-25T01:36:20.012Z,98457.75
2022-11-25T01:38:51.242Z,98467.03
2022-11-25T01:41:18.200Z,98466.56
2022-11-25T01:44:04.693Z,98471.38
2022-11-25T01:46:37.026Z,98475.81
2022-11-25T01:49:10.448Z,98473.31
2022-11-25T01:51:48.394Z,98466.56
2022-11-25T01:54:20.486Z,98464.28
2022-11-25T01:56:53.354Z,98463.47
2022-11-25T01:59:20.044Z,98467.00
2022-11-25T02:01:46.849Z,98460.03
2022-11-25T02:04:16.766Z,98446.56
2022-11-25T02:06:57.519Z,98452.66
2022-11-25T02:09:24.993Z,98457.38
2022-11-25T02:11:52.317Z,98455.75
2022-11-25T02:14:22.494Z,98461.53
2022-11-25T02:16:49.180Z,98453.41
2022-11-25T02:19:39.018Z,98449.06
2022-11-25T02:22:15.332Z,98443.34
2022-11-25T02:24:46.046Z,98443.53
2022-11-25T02:27:13.313Z,98451.16
2022-11-25T02:29:40.812Z,98445.94
2022-11-25T02:32:07.377Z,98456.28
2022-11-25T02:34:34.106Z,98451.63
2022-11-25T02:37:01.165Z,98446.34
2022-11-25T02:39:28.695Z,98445.91
2022-11-25T02:41:58.411Z,98459.47
2022-11-25T02:44:24.842Z,98453.69
2022-11-25T02:46:51.307Z,98466.00
2022-11-25T02:49:17.747Z,98448.84
2022-11-25T02:51:45.352Z,98454.09
2022-11-25T02:54:14.355Z,98450.03
2022-11-25T02:56:40.873Z,98455.38
2022-11-25T02:59:08.069Z,98458.66
2022-11-25T03:01:35.589Z,98450.41
2022-11-25T03:04:02.662Z,98459.66
2022-11-25T03:06:29.964Z,98455.38
2022-11-25T03:08:57.555Z,98461.09
2022-11-25T03:11:44.630Z,98453.78
2022-11-25T03:14:11.029Z,98459.47
2022-11-25T03:16:37.540Z,98472.69
2022-11-25T03:19:04.545Z,98466.88
2022-11-25T03:21:31.470Z,98462.44
2022-11-25T03:23:57.950Z,98471.03
2022-11-25T03:26:25.981Z,98459.38
2022-11-25T03:28:52.449Z,98475.81
2022-11-25T03:31:18.955Z,98463.06
2022-11-25T03:33:45.389Z,98464.31
2022-11-25T03:36:11.796Z,98465.63
2022-11-25T03:38:38.235Z,98467.09
2022-11-25T03:41:04.756Z,98463.19
2022-11-25T03:43:31.243Z,98463.19
2022-11-25T03:45:57.691Z,98456.00
2022-11-25T03:48:24.167Z,98461.00
2022-11-25T03:50:50.593Z,98465.78
2022-11-25T03:53:17.136Z,98461.44
2022-11-25T03:55:43.579Z,98462.91
2022-11-25T03:58:10.080Z,98465.72
2022-11-25T04:00:38.587Z,98460.63
2022-11-25T04:03:05.067Z,98464.91
2022-11-25T04:05:31.503Z,98461.22
2022-11-25T04:07:58.288Z,98466.78
2022-11-25T04:10:25.000Z,98463.00
2022-11-25T04:12:52.492Z,98461.63
2022-11-25T04:15:19.414Z,98462.91
2022-11-25T04:17:46.208Z,98470.69
2022-11-25T04:20:13.875Z,98463.28
2022-11-25T04:22:40.460Z,98464.50
2022-11-25T04:25:07.408Z,98472.16
2022-11-25T04:27:34.307Z,98470.28
2022-11-25T04:30:00.843Z,98468.25
2022-11-25T04:32:27.558Z,98462.13
2022-11-25T04:34:54.089Z,98458.38
2022-11-25T04:37:20.642Z,98469.44
2022-11-25T04:39:47.106Z,98461.63
2022-11-25T04:42:31.825Z,98467.81
2022-11-25T04:45:22.177Z,98464.72
2022-11-25T04:47:48.780Z,98468.63
2022-11-25T04:50:19.249Z,98476.19
2022-11-25T04:52:45.733Z,98471.91
2022-11-25T04:55:12.190Z,98489.97
2022-11-25T04:57:38.653Z,98487.50
2022-11-25T05:00:06.580Z,98503.69
2022-11-25T05:02:33.114Z,98501.41
2022-11-25T05:04:59.637Z,98499.69
2022-11-25T05:07:27.948Z,98493.22
2022-11-25T05:09:54.734Z,98513.94
2022-11-25T05:12:24.081Z,98510.66
2022-11-25T05:14:50.641Z,98512.25
2022-11-25T05:17:22.230Z,98516.78
2022-11-25T05:19:49.785Z,98517.63
2022-11-25T05:22:19.623Z,98517.44
2022-11-25T05:24:46.660Z,98516.25
2022-11-25T05:27:13.439Z,98527.50
2022-11-25T05:29:39.861Z,98525.50
2022-11-25T05:32:06.856Z,98541.66
2022-11-25T05:34:33.387Z,98534.06
2022-11-25T05:37:00.065Z,98541.72
2022-11-25T05:39:26.634Z,98543.78
2022-11-25T05:41:53.197Z,98544.78
2022-11-25T05:44:23.101Z,98549.91
2022-11-25T05:46:50.139Z,98558.09
2022-11-25T05:49:17.566Z,98555.41
2022-11-25T05:51:44.580Z,98554.41
2022-11-25T05:54:11.720Z,98558.09
2022-11-25T05:56:38.376Z,98556.03
2022-11-25T05:59:06.202Z,98555.41
2022-11-25T06:01:33.201Z,98554.81
2022-11-25T06:04:01.446Z,98563.25
2022-11-25T06:06:28.210Z,98550.94
2022-11-25T06:08:54.653Z,98555.47
2022-11-25T06:11:21.065Z,98558.13
2022-11-25T06:13:47.581Z,98562.22
2022-11-25T06:16:20.385Z,98558.34
2022-11-25T06:18:47.104Z,98561.13
2022-11-25T06:21:14.918Z,98557.69
2022-11-25T06:23:41.409Z,98560.16
2022-11-25T06:26:12.186Z,98554.41
2022-11-25T06:28:38.631Z,98554.41
2022-11-25T06:31:16.444Z,98553.59
2022-11-25T06:33:43.202Z,98550.16
2022-11-25T06:36:16.965Z,98547.06
2022-11-25T06:38:54.247Z,98561.00
2022-11-25T06:41:22.557Z,98565.91
2022-11-25T06:43:49.033Z,98562.81
2022-11-25T06:46:24.181Z,98567.16
2022-11-25T06:48:52.004Z,98563.00
2022-11-25T06:51:18.724Z,98569.59
2022-11-25T06:53:45.818Z,98553.78
2022-11-25T06:56:15.521Z,98565.06
2022-11-25T06:58:43.147Z,98578.84
2022-11-25T07:01:24.706Z,98581.50
2022-11-25T07:03:53.930Z,98588.03
2022-11-25T07:06:21.608Z,98597.06
2022-11-25T07:08:48.471Z,98602.75
2022-11-25T07:11:18.699Z,98598.22
2022-11-25T07:13:45.985Z,98608.09
2022-11-25T07:16:13.215Z,98601.31
2022-11-25T07:18:41.132Z,98607.69
2022-11-25T07:21:08.992Z,98610.91
2022-11-25T07:23:36.797Z,98616.09
2022-11-25T07:26:06.297Z,98622.41
2022-11-25T07:28:33.553Z,98624.69
2022-11-25T07:31:27.780Z,98634.16
2022-11-25T07:33:59.521Z,98633.94
2022-11-25T07:36:26.777Z,98640.28
2022-11-25T07:38:53.292Z,98646.44
2022-11-25T07:41:22.614Z,98647.25
2022-11-25T07:43:52.275Z,98647.41
2022-11-25T07:46:27.376Z,98658.88
2022-11-25T07:48:56.084Z,98663.00
2022-11-25T07:51:30.613Z,98687.38
2022-11-25T07:53:58.506Z,98702.81
2022-11-25T07:56:25.506Z,98714.06
2022-11-25T07:58:52.085Z,98705.22
2022-11-25T08:01:19.683Z,98698.19
2022-11-25T08:03:48.561Z,98709.09
2022-11-25T08:06:18.598Z,98714.19
2022-11-25T08:08:46.036Z,98715.00
2022-11-25T08:11:15.135Z,98716.59
2022-11-25T08:13:42.100Z,98723.59
2022-11-25T08:16:09.020Z,98715.59
2022-11-25T08:18:35.609Z,98719.69
2022-11-25T08:21:04.837Z,98724.81
2022-11-25T08:23:32.999Z,98730.53
2022-11-25T08:26:18.368Z,98729.25
2022-11-25T08:28:46.928Z,98725.56
2022-11-25T08:31:17.054Z,98738.22
2022-11-25T08:33:44.162Z,98738.84
2022-11-25T08:36:11.416Z,98745.22
2022-11-25T08:38:38.521Z,98738.88
2022-11-25T08:41:10.492Z,98744.84
2022-11-25T08:43:38.502Z,98744.47
2022-11-25T08:46:08.847Z,98742.84
2022-11-25T08:48:35.574Z,98745.28
2022-11-25T08:51:02.017Z,98742.03
2022-11-25T08:53:28.741Z,98742.03
2022-11-25T08:55:55.150Z,98752.28
2022-11-25T08:58:21.613Z,98748.22
2022-11-25T09:00:48.100Z,98754.53
2022-11-25T09:03:14.694Z,98747.00
2022-11-25T09:05:43.054Z,98753.00
2022-11-25T09:08:10.714Z,98749.50
2022-11-25T09:10:38.849Z,98747.50
2022-11-25T09:13:05.362Z,98756.50
2022-11-25T09:15:32.514Z,98744.19
2022-11-25T09:18:04.947Z,98744.16
2022-11-25T09:20:32.731Z,98744.97
2022-11-25T09:23:01.251Z,98741.53
2022-11-25T09:25:28.573Z,98737.22
2022-11-25T09:27:55.979Z,98739.47
2022-11-25T09:30:23.841Z,98741.34
2022-11-25T09:32:52.796Z,98734.72
2022-11-25T09:35:19.675Z,98732.19
2022-11-25T09:37:46.160Z,98729.75
2022-11-25T09:40:33.343Z,98728.75
2022-11-25T09:43:38.417Z,98733.66
2022-11-25T09:46:40.135Z,98742.19
2022-11-25T09:49:33.990Z,98723.25
2022-11-25T09:52:03.819Z,98736.19
2022-11-25T09:54:36.859Z,98731.50
2022-11-25T09:57:20.476Z,98744.81
2022-11-25T09:59:57.113Z,98742.06
2022-11-25T10:02:39.328Z,98737.97
2022-11-25T10:05:18.481Z,98744.03
2022-11-25T10:07:51.886Z,98743.94
2022-11-25T10:10:22.250Z,98754.81
2022-11-25T10:12:51.115Z,98749.09
2022-11-25T10:15:20.983Z,98749.94
2022-11-25T10:17:50.721Z,98742.53
2022-11-25T10:20:23.785Z,98748.06
2022-11-25T10:23:01.065Z,98750.03
2022-11-25T10:25:35.295Z,98740.72
2022-11-25T10:28:22.948Z,98733.78
2022-11-25T10:31:15.269Z,98739.81
2022-11-25T10:33:49.431Z,98748.66
2022-11-25T10:36:23.744Z,98746.50
2022-11-25T10:39:07.709Z,98755.44
2022-11-25T10:41:42.978Z,98747.13
2022-11-25T10:44:23.454Z,98742.69
2022-11-25T10:47:30.661Z,98740.97
2022-11-25T10:50:18.426Z,98745.88
2022-11-25T10:52:57.249Z,98747.69
2022-11-25T10:55:33.947Z,98752.16
2022-11-25T10:58:25.415Z,98755.88
2022-11-25T11:01:03.002Z,98761.91
2022-11-25T11:03:29.508Z,98767.47
2022-11-25T11:05:56.018Z,98768.84
2022-11-25T11:08:28.552Z,98764.94
2022-11-25T11:11:16.471Z,98774.19
2022-11-25T11:13:43.495Z,98775.66
2022-11-25T11:16:31.626Z,98788.91
2022-11-25T11:18:58.532Z,98789.66
2022-11-25T11:21:35.641Z,98789.81
2022-11-25T11:24:04.449Z,98788.63
2022-11-25T11:26:33.943Z,98789.06
2022-11-25T11:29:21.509Z,98788.78
2022-11-25T11:32:19.926Z,98786.47
2022-11-25T11:35:02.417Z,98793.38
2022-11-25T11:37:29.706Z,98794.13
2022-11-25T11:40:17.979Z,98796.59
2022-11-25T11:43:05.724Z,98800.38
2022-11-25T11:46:13.429Z,98803.66
2022-11-25T11:49:00.670Z,98808.50
2022-11-25T11:51:37.598Z,98809.63
2022-11-25T11:54:17.589Z,98814.22
2022-11-25T11:57:04.249Z,98808.41
2022-11-25T11:59:51.309Z,98810.66
2022-11-25T12:02:31.191Z,98804.72
2022-11-25T12:05:11.310Z,98812.66
2022-11-25T12:07:53.104Z,98807.47
2022-11-25T12:10:26.078Z,98815.16
2022-11-25T12:13:05.554Z,98809.50
2022-11-25T12:15:50.500Z,98817.09
2022-11-25T12:18:41.888Z,98815.84
2022-11-25T12:21:28.367Z,98817.41
2022-11-25T12:24:19.438Z,98817.69
2022-11-25T12:27:06.545Z,98822.09
2022-11-25T12:29:48.734Z,98827.59
2022-11-25T12:32:31.018Z,98826.66
2022-11-25T12:35:19.709Z,98824.69
2022-11-25T12:37:55.162Z,98830.53
2022-11-25T12:40:42.727Z,98829.00
2022-11-25T12:43:37.389Z,98830.53
2022-11-25T12:46:45.227Z,98835.19
2022-11-25T12:49:20.066Z,98844.31
2022-11-25T12:51:54.028Z,98844.06
2022-11-25T12:54:43.604Z,98845.78
2022-11-25T12:57:37.988Z,98852.88
2022-11-25T13:00:40.440Z,98849.41
2022-11-25T13:03:16.210Z,98859.22
2022-11-25T13:06:00.743Z,98858.03
2022-11-25T13:08:42.091Z,98854.59
2022-11-25T13:11:15.615Z,98854.69
2022-11-25T13:14:13.279Z,98855.91
2022-11-25T13:16:42.331Z,98864.25
2022-11-25T13:19:12.044Z,98855.16
2022-11-25T13:21:57.118Z,98857.25
2022-11-25T13:24:41.327Z,98867.06
2022-11-25T13:27:29.401Z,98874.63
2022-11-25T13:29:55.917Z,98873.75
2022-11-25T13:32:31.320Z,98879.25
2022-11-25T13:35:22.620Z,98876.03
2022-11-25T13:37:50.152Z,98878.38
2022-11-25T13:40:31.467Z,98878.97
2022-11-25T13:43:00.430Z,98882.22
2022-11-25T13:45:43.518Z,98889.00
2022-11-25T13:48:24.417Z,98892.69
2022-11-25T13:51:10.732Z,98897.53
2022-11-25T13:53:39.064Z,98898.63
2022-11-25T13:56:25.265Z,98898.97
2022-11-25T13:59:10.094Z,98899.09
2022-11-25T14:01:41.528Z,98900.72
2022-11-25T14:04:10.833Z,98907.03
2022-11-25T14:07:06.643Z,98912.56
2022-11-25T14:09:44.971Z,98911.88
2022-11-25T14:12:21.612Z,98913.97
2022-11-25T14:15:24.853Z,98917.25
2022-11-25T14:19:00.313Z,98920.38
2022-11-25T14:21:27.333Z,98926.59
2022-11-25T14:24:15.931Z,98933.47
2022-11-25T14:26:50.171Z,98929.47
2022-11-25T14:29:32.225Z,98934.97
2022-11-25T14:32:08.737Z,98941.03
2022-11-25T14:34:41.192Z,98942.88
2022-11-25T14:37:26.194Z,98946.72
2022-11-25T14:40:01.292Z,98943.31
2022-11-25T14:42:35.006Z,98944.38
2022-11-25T14:45:02.053Z,98948.91
2022-11-25T14:47:34.617Z,98949.59
2022-11-25T14:50:33.641Z,98956.25
2022-11-25T14:52:58.837Z,98955.84
2022-11-25T14:55:32.010Z,98957.72
2022-11-25T14:57:58.715Z,98962.50
2022-11-25T15:00:25.426Z,98962.38
2022-11-25T15:03:00.392Z,98961.16
2022-11-25T15:05:35.156Z,98966.09
2022-11-25T15:08:14.542Z,98962.22
2022-11-25T15:10:51.989Z,98975.06
2022-11-25T15:13:38.916Z,98979.34
2022-11-25T15:16:13.847Z,98975.00
2022-11-25T15:18:57.173Z,98977.69
2022-11-25T15:21:29.782Z,98983.28
2022-11-25T15:23:56.397Z,98980.69
2022-11-25T15:26:26.279Z,98993.59
2022-11-25T15:29:02.306Z,98989.13
2022-11-25T15:31:34.527Z,98993.72
2022-11-25T15:34:05.065Z,98997.91
2022-11-25T15:36:31.681Z,98995.53
2022-11-25T15:39:20.336Z,99013.28
2022-11-25T15:41:51.831Z,99013.72
2022-11-25T15:44:44.460Z,99009.38
2022-11-25T15:47:24.953Z,99013.13
2022-11-25T15:50:16.353Z,99019.09
2022-11-25T15:52:47.369Z,99016.59
2022-11-25T15:55:29.225Z,99022.59
2022-11-25T15:58:01.982Z,99024.91
2022-11-25T16:00:28.437Z,99028.59
2022-11-25T16:02:57.725Z,99033.59
2022-11-25T16:05:31.853Z,99030.25
2022-11-25T16:08:01.620Z,99028.16
2022-11-25T16:10:32.654Z,99033.88
2022-11-25T16:13:23.563Z,99037.63
2022-11-25T16:15:59.547Z,99047.09
2022-11-25T16:18:41.563Z,99042.09
2022-11-25T16:21:12.765Z,99054.09
2022-11-25T16:23:44.154Z,99053.28
2022-11-25T16:26:17.425Z,99060.50
2022-11-25T16:28:52.008Z,99067.38
2022-11-25T16:31:19.802Z,99064.44
2022-11-25T16:33:46.554Z,99067.13
2022-11-25T16:36:14.337Z,99070.88
2022-11-25T16:38:40.876Z,99076.59
2022-11-25T16:41:37.091Z,99082.06
2022-11-25T16:44:18.134Z,99083.25
2022-11-25T16:46:44.845Z,99088.69
2022-11-25T16:49:14.291Z,99092.97
2022-11-25T16:51:40.855Z,99096.81
2022-11-25T16:54:07.576Z,99099.78
2022-11-25T16:56:37.502Z,99112.63
2022-11-25T16:59:04.303Z,99109.88
2022-11-25T17:01:31.436Z,99123.06
2022-11-25T17:03:57.966Z,99121.41
2022-11-25T17:06:26.857Z,99118.22
2022-11-25T17:08:53.296Z,99129.38
2022-11-25T17:11:25.739Z,99133.16
2022-11-25T17:13:53.604Z,99141.19
2022-11-25T17:16:23.560Z,99142.63
2022-11-25T17:18:51.943Z,99147.25
2022-11-25T17:21:18.734Z,99150.13
2022-11-25T17:23:46.104Z,99161.25
2022-11-25T17:26:20.629Z,99161.88
2022-11-25T17:28:54.584Z,99159.16
2022-11-25T17:31:27.455Z,99165.88
2022-11-25T17:33:54.419Z,99163.78
2022-11-25T17:36:21.808Z,99172.25
2022-11-25T17:38:49.031Z,99171.38
2022-11-25T17:41:18.022Z,99180.84
2022-11-25T17:43:46.583Z,99176.31
2022-11-25T17:46:14.947Z,99180.84
2022-11-25T17:48:42.472Z,99188.22
2022-11-25T17:51:13.277Z,99192.75
2022-11-25T17:53:40.688Z,99197.06
2022-11-25T17:56:36.607Z,99201.44
2022-11-25T17:59:06.108Z,99205.56
2022-11-25T18:01:32.612Z,99214.00
2022-11-25T18:03:59.133Z,99217.94
2022-11-25T18:06:25.560Z,99215.84
2022-11-25T18:08:51.942Z,99215.03
2022-11-25T18:11:19.909Z,99217.53
2022-11-25T18:13:47.654Z,99222.44
2022-11-25T18:16:17.139Z,99234.19
2022-11-25T18:18:43.612Z,99234.41
2022-11-25T18:21:11.894Z,99226.56
2022-11-25T18:23:38.352Z,99238.31
2022-11-25T18:26:05.093Z,99237.50
2022-11-25T18:28:32.702Z,99237.69
2022-11-25T18:31:03.913Z,99247.78
2022-11-25T18:33:31.386Z,99248.16
2022-11-25T18:35:58.305Z,99256.84
2022-11-25T18:38:24.727Z,99256.69
2022-11-25T18:40:53.912Z,99252.34
2022-11-25T18:43:24.643Z,99260.66
2022-11-25T18:45:52.583Z,99270.97
2022-11-25T18:48:24.509Z,99280.69
2022-11-25T18:50:53.310Z,99282.56
2022-11-25T18:53:19.898Z,99287.47
2022-11-25T18:55:47.988Z,99287.06
2022-11-25T18:58:23.549Z,99304.59
2022-11-25T19:00:52.159Z,99311.63
2022-11-25T19:03:22.190Z,99314.06
2022-11-25T19:05:49.651Z,99319.88
2022-11-25T19:08:16.270Z,99316.38
2022-11-25T19:10:45.504Z,99320.69
2022-11-25T19:13:17.106Z,99330.81
2022-11-25T19:15:44.906Z,99327.72
2022-11-25T19:18:23.495Z,99338.25
2022-11-25T19:20:50.108Z,99342.13
2022-11-25T19:23:28.765Z,99339.91
2022-11-25T19:26:00.180Z,99347.31
2022-11-25T19:28:27.168Z,99359.13
2022-11-25T19:31:04.656Z,99366.13
2022-11-25T19:33:34.713Z,99368.38
2022-11-25T19:36:01.590Z,99377.66
2022-11-25T19:38:28.222Z,99372.88
2022-11-25T19:40:56.605Z,99373.28
2022-11-25T19:43:26.921Z,99373.31
2022-11-25T19:45:55.532Z,99376.00
2022-11-25T19:48:22.707Z,99385.50
2022-11-25T19:50:59.016Z,99386.34
2022-11-25T19:53:31.728Z,99386.13
2022-11-25T19:56:04.005Z,99386.97
2022-11-25T19:58:30.870Z,99386.97
2022-11-25T20:01:01.014Z,99394.19
2022-11-25T20:03:30.598Z,99398.34
2022-11-25T20:05:57.689Z,99402.47
2022-11-25T20:08:26.817Z,99408.47
2022-11-25T20:10:54.339Z,99403.09
2022-11-25T20:13:23.419Z,99410.50
2022-11-25T20:15:50.566Z,99408.88
2022-11-25T20:18:20.391Z,99416.69
2022-11-25T20:20:50.004Z,99409.69
2022-11-25T20:23:32.864Z,99420.81
2022-11-25T20:25:59.610Z,99426.19
2022-11-25T20:28:30.126Z,99440.16
2022-11-25T20:30:59.137Z,99431.91
2022-11-25T20:33:27.053Z,99438.94
2022-11-25T20:36:03.214Z,99447.53
2022-11-25T20:38:32.438Z,99456.78
2022-11-25T20:41:00.533Z,99467.69
2022-11-25T20:43:30.786Z,99469.72
2022-11-25T20:45:58.342Z,99470.56
2022-11-25T20:48:25.627Z,99469.34
2022-11-25T20:50:53.290Z,99477.97
2022-11-25T20:53:22.441Z,99479.63
2022-11-25T20:55:49.726Z,99482.94
2022-11-25T20:58:21.495Z,99494.69
2022-11-25T21:00:52.798Z,99499.34
2022-11-25T21:03:22.615Z,99490.28
2022-11-25T21:05:50.682Z,99499.38
2022-11-25T21:08:23.999Z,99499.78
2022-11-25T21:10:53.932Z,99489.06
2022-11-25T21:13:29.277Z,99497.34
2022-11-25T21:15:59.142Z,99501.22
2022-11-25T21:18:25.679Z,99501.00
2022-11-25T21:20:54.121Z,99492.78
2022-11-25T21:23:27.614Z,99502.44
2022-11-25T21:25:55.474Z,99515.75
2022-11-25T21:28:26.772Z,99512.44
2022-11-25T21:30:53.532Z,99508.31
2022-11-25T21:33:19.944Z,99519.00
2022-11-25T21:35:50.435Z,99517.16
2022-11-25T21:38:20.958Z,99518.13
2022-11-25T21:40:52.357Z,99515.44
2022-11-25T21:43:29.801Z,99515.03
2022-11-25T21:46:01.549Z,99509.91
2022-11-25T21:48:31.344Z,99519.84
2022-11-25T21:50:58.941Z,99526.91
2022-11-25T21:53:27.251Z,99521.31
2022-11-25T21:55:54.202Z,99521.84
2022-11-25T21:58:28.642Z,99527.53
2022-11-25T22:00:58.326Z,99530.34
2022-11-25T22:03:26.210Z,99517.66
2022-11-25T22:05:52.782Z,99525.28
2022-11-25T22:08:19.251Z,99523.19
2022-11-25T22:10:48.918Z,99520.03
2022-11-25T22:13:22.301Z,99521.06
2022-11-25T22:15:50.702Z,99519.38
2022-11-25T22:18:28.153Z,99525.91
2022-11-25T22:20:54.723Z,99533.31
2022-11-25T22:23:22.024Z,99529.34
2022-11-25T22:25:50.185Z,99529.81
2022-11-25T22:28:19.976Z,99534.25
2022-11-25T22:30:50.987Z,99534.78
2022-11-25T22:33:18.207Z,99541.78
2022-11-25T22:35:44.647Z,99553.72
2022-11-25T22:38:16.402Z,99558.22
2022-11-25T22:40:45.723Z,99564.41
2022-11-25T22:43:17.163Z,99573.31
2022-11-25T22:45:44.352Z,99573.38
2022-11-25T22:48:15.803Z,99576.09
2022-11-25T22:50:43.956Z,99569.50
2022-11-25T22:53:14.733Z,99576.47
2022-11-25T22:55:41.609Z,99574.41
2022-11-25T22:58:08.353Z,99575.31
2022-11-25T23:00:38.425Z,99576.88
2022-11-25T23:03:19.105Z,99582.88
2022-11-25T23:05:46.035Z,99574.16
2022-11-25T23:08:18.803Z,99575.06
2022-11-25T23:10:46.599Z,99568.88
2022-11-25T23:13:14.636Z,99570.53
2022-11-25T23:15:55.795Z,99570.78
2022-11-25T23:18:39.028Z,99577.56
2022-11-25T23:21:07.006Z,99570.59
2022-11-25T23:23:33.406Z,99573.50
2022-11-25T23:25:59.955Z,99578.03
2022-11-25T23:28:26.663Z,99572.22
2022-11-25T23:30:58.686Z,99576.63
2022-11-25T23:33:37.828Z,99581.41
2022-11-25T23:36:12.587Z,99573.72
2022-11-25T23:38:43.606Z,99572.84
2022-11-25T23:41:22.146Z,99578.88
2022-11-25T23:43:49.445Z,99584.69
2022-11-25T23:46:19.018Z,99573.16
2022-11-25T23:48:52.685Z,99581.72
2022-11-25T23:51:20.877Z,99582.59
2022-11-25T23:53:47.345Z,99586.59
2022-11-25T23:56:14.184Z,99593.53
2022-11-25T23:58:40.645Z,99590.50
